sensor_id;sensor_type;location;lat;lon;timestamp;P1;durP1;ratioP1;P2;durP2;ratioP2
18274;SDS011;19470;49.322;7.218;2023-04-03T00:00:27;12.25;;;11.50;;
18274;SDS011;19470;49.322;7.218;2023-04-03T00:02:53;177.10;;;167.25;;
18274;SDS011;19470;49.322;7.218;2023-04-03T00:05:19;7.85;;;7.35;;
18274;SDS011;19470;49.322;7.218;2023-04-03T00:07:46;80.65;;;76.53;;
18274;SDS011;19470;49.322;7.218;2023-04-03T00:10:14;20.08;;;19.00;;
18274;SDS011;19470;49.322;7.218;2023-04-03T00:12:41;68.22;;;64.47;;
18274;SDS011;19470;49.322;7.218;2023-04-03T00:15:08;13.27;;;12.43;;
18274;SDS011;19470;49.322;7.218;2023-04-03T00:17:36;204.55;;;193.73;;
18274;SDS011;19470;49.322;7.218;2023-04-03T00:20:04;7.50;;;6.82;;
18274;SDS011;19470;49.322;7.218;2023-04-03T00:22:32;51.42;;;48.55;;
18274;SDS011;19470;49.322;7.218;2023-04-03T00:24:58;8.48;;;7.88;;
18274;SDS011;19470;49.322;7.218;2023-04-03T00:27:25;11.40;;;10.60;;
18274;SDS011;19470;49.322;7.218;2023-04-03T00:29:51;8.77;;;8.07;;
18274;SDS011;19470;49.322;7.218;2023-04-03T00:32:18;46.35;;;43.83;;
18274;SDS011;19470;49.322;7.218;2023-04-03T00:34:46;8.60;;;8.00;;
18274;SDS011;19470;49.322;7.218;2023-04-03T00:37:12;10.30;;;9.50;;
18274;SDS011;19470;49.322;7.218;2023-04-03T00:39:39;9.60;;;8.80;;
18274;SDS011;19470;49.322;7.218;2023-04-03T00:42:05;248.20;;;234.88;;
18274;SDS011;19470;49.322;7.218;2023-04-03T00:47:36;12.13;;;11.27;;
18274;SDS011;19470;49.322;7.218;2023-04-03T00:50:06;9.23;;;8.63;;
18274;SDS011;19470;49.322;7.218;2023-04-03T00:52:33;18.95;;;17.83;;
18274;SDS011;19470;49.322;7.218;2023-04-03T00:55:00;13.05;;;12.23;;
18274;SDS011;19470;49.322;7.218;2023-04-03T00:57:30;47.47;;;32.92;;
18274;SDS011;19470;49.322;7.218;2023-04-03T00:59:59;8.52;;;7.82;;
18274;SDS011;19470;49.322;7.218;2023-04-03T01:02:28;7.00;;;6.55;;
18274;SDS011;19470;49.322;7.218;2023-04-03T01:04:55;5.93;;;5.53;;
18274;SDS011;19470;49.322;7.218;2023-04-03T01:07:24;9.52;;;5.43;;
18274;SDS011;19470;49.322;7.218;2023-04-03T01:09:55;5.57;;;5.18;;
18274;SDS011;19470;49.322;7.218;2023-04-03T01:12:24;4.70;;;4.38;;
18274;SDS011;19470;49.322;7.218;2023-04-03T01:14:53;5.32;;;4.50;;
18274;SDS011;19470;49.322;7.218;2023-04-03T01:17:27;5.33;;;3.93;;
18274;SDS011;19470;49.322;7.218;2023-04-03T01:19:58;4.75;;;3.72;;
18274;SDS011;19470;49.322;7.218;2023-04-03T01:22:39;3.97;;;3.40;;
18274;SDS011;19470;49.322;7.218;2023-04-03T01:25:11;5.53;;;5.03;;
18274;SDS011;19470;49.322;7.218;2023-04-03T01:27:38;4.10;;;3.72;;
18274;SDS011;19470;49.322;7.218;2023-04-03T01:30:05;5.15;;;3.60;;
18274;SDS011;19470;49.322;7.218;2023-04-03T01:32:34;6.10;;;3.63;;
18274;SDS011;19470;49.322;7.218;2023-04-03T01:35:00;3.40;;;3.10;;
18274;SDS011;19470;49.322;7.218;2023-04-03T01:37:27;4.83;;;3.37;;
18274;SDS011;19470;49.322;7.218;2023-04-03T01:39:53;3.80;;;3.50;;
18274;SDS011;19470;49.322;7.218;2023-04-03T01:42:20;5.90;;;3.50;;
18274;SDS011;19470;49.322;7.218;2023-04-03T01:44:47;5.20;;;3.25;;
18274;SDS011;19470;49.322;7.218;2023-04-03T01:47:13;3.38;;;2.92;;
18274;SDS011;19470;49.322;7.218;2023-04-03T01:49:41;5.30;;;3.77;;
18274;SDS011;19470;49.322;7.218;2023-04-03T01:52:08;3.67;;;3.13;;
18274;SDS011;19470;49.322;7.218;2023-04-03T01:54:34;6.30;;;4.60;;
18274;SDS011;19470;49.322;7.218;2023-04-03T01:57:01;5.47;;;3.33;;
18274;SDS011;19470;49.322;7.218;2023-04-03T01:59:27;21.47;;;11.70;;
18274;SDS011;19470;49.322;7.218;2023-04-03T02:01:54;6.10;;;3.67;;
18274;SDS011;19470;49.322;7.218;2023-04-03T02:04:20;3.40;;;3.10;;
18274;SDS011;19470;49.322;7.218;2023-04-03T02:06:49;5.30;;;3.33;;
18274;SDS011;19470;49.322;7.218;2023-04-03T02:09:15;3.47;;;3.17;;
18274;SDS011;19470;49.322;7.218;2023-04-03T02:11:42;5.20;;;3.30;;
18274;SDS011;19470;49.322;7.218;2023-04-03T02:14:08;3.60;;;3.20;;
18274;SDS011;19470;49.322;7.218;2023-04-03T02:16:35;5.57;;;3.37;;
18274;SDS011;19470;49.322;7.218;2023-04-03T02:19:01;5.50;;;3.30;;
18274;SDS011;19470;49.322;7.218;2023-04-03T02:21:28;4.47;;;3.80;;
18274;SDS011;19470;49.322;7.218;2023-04-03T02:23:56;4.60;;;3.33;;
18274;SDS011;19470;49.322;7.218;2023-04-03T02:26:22;7.13;;;3.23;;
18274;SDS011;19470;49.322;7.218;2023-04-03T02:28:50;4.15;;;3.35;;
18274;SDS011;19470;49.322;7.218;2023-04-03T02:31:16;5.73;;;3.07;;
18274;SDS011;19470;49.322;7.218;2023-04-03T02:33:43;4.30;;;2.90;;
18274;SDS011;19470;49.322;7.218;2023-04-03T02:36:10;6.13;;;3.07;;
18274;SDS011;19470;49.322;7.218;2023-04-03T02:38:37;4.13;;;3.00;;
18274;SDS011;19470;49.322;7.218;2023-04-03T02:41:05;3.60;;;3.30;;
18274;SDS011;19470;49.322;7.218;2023-04-03T02:43:32;3.50;;;2.90;;
18274;SDS011;19470;49.322;7.218;2023-04-03T02:45:59;5.60;;;3.30;;
18274;SDS011;19470;49.322;7.218;2023-04-03T02:48:26;3.23;;;2.93;;
18274;SDS011;19470;49.322;7.218;2023-04-03T02:50:52;4.03;;;2.85;;
18274;SDS011;19470;49.322;7.218;2023-04-03T02:53:19;5.77;;;2.90;;
18274;SDS011;19470;49.322;7.218;2023-04-03T02:55:46;6.30;;;3.13;;
18274;SDS011;19470;49.322;7.218;2023-04-03T02:58:13;3.77;;;3.20;;
18274;SDS011;19470;49.322;7.218;2023-04-03T03:00:40;3.93;;;2.90;;
18274;SDS011;19470;49.322;7.218;2023-04-03T03:03:07;4.83;;;3.27;;
18274;SDS011;19470;49.322;7.218;2023-04-03T03:05:33;4.07;;;3.20;;
18274;SDS011;19470;49.322;7.218;2023-04-03T03:08:01;5.00;;;3.00;;
18274;SDS011;19470;49.322;7.218;2023-04-03T03:10:27;5.07;;;3.40;;
18274;SDS011;19470;49.322;7.218;2023-04-03T03:12:53;3.27;;;2.70;;
18274;SDS011;19470;49.322;7.218;2023-04-03T03:15:21;4.40;;;3.00;;
18274;SDS011;19470;49.322;7.218;2023-04-03T03:17:48;2.50;;;2.30;;
18274;SDS011;19470;49.322;7.218;2023-04-03T03:20:15;3.40;;;2.97;;
18274;SDS011;19470;49.322;7.218;2023-04-03T03:22:41;3.20;;;2.30;;
18274;SDS011;19470;49.322;7.218;2023-04-03T03:25:08;4.60;;;3.10;;
18274;SDS011;19470;49.322;7.218;2023-04-03T03:27:35;3.77;;;3.40;;
18274;SDS011;19470;49.322;7.218;2023-04-03T03:30:02;7.43;;;3.30;;
18274;SDS011;19470;49.322;7.218;2023-04-03T03:32:30;7.83;;;3.70;;
18274;SDS011;19470;49.322;7.218;2023-04-03T03:34:57;8.80;;;3.73;;
18274;SDS011;19470;49.322;7.218;2023-04-03T03:37:23;6.50;;;3.50;;
18274;SDS011;19470;49.322;7.218;2023-04-03T03:39:50;6.17;;;3.70;;
18274;SDS011;19470;49.322;7.218;2023-04-03T03:42:22;6.87;;;4.73;;
18274;SDS011;19470;49.322;7.218;2023-04-03T03:44:49;12.40;;;6.10;;
18274;SDS011;19470;49.322;7.218;2023-04-03T03:47:16;6.27;;;4.57;;
18274;SDS011;19470;49.322;7.218;2023-04-03T03:49:44;7.67;;;4.57;;
18274;SDS011;19470;49.322;7.218;2023-04-03T03:52:11;6.00;;;3.60;;
18274;SDS011;19470;49.322;7.218;2023-04-03T03:54:37;6.87;;;4.27;;
18274;SDS011;19470;49.322;7.218;2023-04-03T03:57:04;7.23;;;4.83;;
18274;SDS011;19470;49.322;7.218;2023-04-03T03:59:31;5.47;;;4.30;;
18274;SDS011;19470;49.322;7.218;2023-04-03T04:01:57;5.33;;;3.57;;
18274;SDS011;19470;49.322;7.218;2023-04-03T04:04:24;4.47;;;2.40;;
18274;SDS011;19470;49.322;7.218;2023-04-03T04:06:52;4.53;;;2.70;;
18274;SDS011;19470;49.322;7.218;2023-04-03T04:09:18;3.73;;;2.70;;
18274;SDS011;19470;49.322;7.218;2023-04-03T04:11:45;16.23;;;9.77;;
18274;SDS011;19470;49.322;7.218;2023-04-03T04:14:11;24.33;;;13.40;;
18274;SDS011;19470;49.322;7.218;2023-04-03T04:16:38;5.07;;;3.13;;
18274;SDS011;19470;49.322;7.218;2023-04-03T04:19:05;3.97;;;2.97;;
18274;SDS011;19470;49.322;7.218;2023-04-03T04:21:31;3.33;;;2.50;;
18274;SDS011;19470;49.322;7.218;2023-04-03T04:23:59;4.93;;;3.13;;
18274;SDS011;19470;49.322;7.218;2023-04-03T04:26:26;7.40;;;3.10;;
18274;SDS011;19470;49.322;7.218;2023-04-03T04:28:52;2.83;;;2.53;;
18274;SDS011;19470;49.322;7.218;2023-04-03T04:34:40;6.23;;;2.73;;
18274;SDS011;19470;49.322;7.218;2023-04-03T04:37:06;13.70;;;6.93;;
18274;SDS011;19470;49.322;7.218;2023-04-03T04:39:34;68.87;;;32.07;;
18274;SDS011;19470;49.322;7.218;2023-04-03T04:42:01;31.83;;;15.60;;
18274;SDS011;19470;49.322;7.218;2023-04-03T04:44:28;27.47;;;15.10;;
18274;SDS011;19470;49.322;7.218;2023-04-03T04:46:54;5.13;;;3.90;;
18274;SDS011;19470;49.322;7.218;2023-04-03T04:49:21;4.07;;;3.40;;
18274;SDS011;19470;49.322;7.218;2023-04-03T04:51:47;4.70;;;3.30;;
18274;SDS011;19470;49.322;7.218;2023-04-03T04:54:14;5.43;;;2.97;;
18274;SDS011;19470;49.322;7.218;2023-04-03T04:56:41;4.00;;;3.30;;
18274;SDS011;19470;49.322;7.218;2023-04-03T04:59:08;4.43;;;3.43;;
18274;SDS011;19470;49.322;7.218;2023-04-03T05:01:35;3.53;;;3.20;;
18274;SDS011;19470;49.322;7.218;2023-04-03T05:04:01;7.00;;;3.70;;
18274;SDS011;19470;49.322;7.218;2023-04-03T05:06:28;8.83;;;4.10;;
18274;SDS011;19470;49.322;7.218;2023-04-03T05:08:56;5.90;;;3.37;;
18274;SDS011;19470;49.322;7.218;2023-04-03T05:11:23;10.47;;;3.17;;
18274;SDS011;19470;49.322;7.218;2023-04-03T05:13:52;9.70;;;5.50;;
18274;SDS011;19470;49.322;7.218;2023-04-03T05:16:18;12.67;;;7.67;;
18274;SDS011;19470;49.322;7.218;2023-04-03T05:18:45;15.33;;;8.60;;
18274;SDS011;19470;49.322;7.218;2023-04-03T05:21:11;62.80;;;30.13;;
18274;SDS011;19470;49.322;7.218;2023-04-03T05:23:38;7.63;;;4.40;;
18274;SDS011;19470;49.322;7.218;2023-04-03T05:26:04;9.33;;;5.53;;
18274;SDS011;19470;49.322;7.218;2023-04-03T05:28:31;10.37;;;6.30;;
18274;SDS011;19470;49.322;7.218;2023-04-03T05:30:59;9.50;;;5.27;;
18274;SDS011;19470;49.322;7.218;2023-04-03T05:33:26;5.57;;;3.67;;
18274;SDS011;19470;49.322;7.218;2023-04-03T05:35:52;5.80;;;3.80;;
18274;SDS011;19470;49.322;7.218;2023-04-03T05:38:19;7.20;;;4.00;;
18274;SDS011;19470;49.322;7.218;2023-04-03T05:40:46;7.27;;;4.53;;
18274;SDS011;19470;49.322;7.218;2023-04-03T05:43:13;6.70;;;4.70;;
18274;SDS011;19470;49.322;7.218;2023-04-03T05:45:39;8.13;;;4.03;;
18274;SDS011;19470;49.322;7.218;2023-04-03T05:48:07;7.93;;;4.37;;
18274;SDS011;19470;49.322;7.218;2023-04-03T05:50:34;11.33;;;4.73;;
18274;SDS011;19470;49.322;7.218;2023-04-03T05:53:00;8.50;;;4.20;;
18274;SDS011;19470;49.322;7.218;2023-04-03T05:55:29;9.00;;;5.00;;
18274;SDS011;19470;49.322;7.218;2023-04-03T05:57:55;10.17;;;5.07;;
18274;SDS011;19470;49.322;7.218;2023-04-03T06:00:22;5.70;;;3.93;;
18274;SDS011;19470;49.322;7.218;2023-04-03T06:02:48;15.60;;;9.20;;
18274;SDS011;19470;49.322;7.218;2023-04-03T06:05:16;6.77;;;4.40;;
18274;SDS011;19470;49.322;7.218;2023-04-03T06:07:43;5.13;;;3.40;;
18274;SDS011;19470;49.322;7.218;2023-04-03T06:10:11;3.87;;;2.90;;
18274;SDS011;19470;49.322;7.218;2023-04-03T06:12:38;3.93;;;2.93;;
18274;SDS011;19470;49.322;7.218;2023-04-03T06:15:05;4.60;;;3.30;;
18274;SDS011;19470;49.322;7.218;2023-04-03T06:17:33;5.37;;;4.50;;
18274;SDS011;19470;49.322;7.218;2023-04-03T06:19:59;3.80;;;3.17;;
18274;SDS011;19470;49.322;7.218;2023-04-03T06:22:27;4.27;;;3.33;;
18274;SDS011;19470;49.322;7.218;2023-04-03T06:24:54;4.13;;;3.40;;
18274;SDS011;19470;49.322;7.218;2023-04-03T06:27:21;5.80;;;3.70;;
18274;SDS011;19470;49.322;7.218;2023-04-03T06:29:48;13.77;;;12.73;;
18274;SDS011;19470;49.322;7.218;2023-04-03T06:32:15;9.18;;;5.57;;
18274;SDS011;19470;49.322;7.218;2023-04-03T06:34:42;11.80;;;7.43;;
18274;SDS011;19470;49.322;7.218;2023-04-03T06:37:10;10.83;;;6.47;;
18274;SDS011;19470;49.322;7.218;2023-04-03T06:39:38;21.30;;;19.80;;
18274;SDS011;19470;49.322;7.218;2023-04-03T06:42:05;5.10;;;4.70;;
18274;SDS011;19470;49.322;7.218;2023-04-03T06:44:31;22.13;;;20.55;;
18274;SDS011;19470;49.322;7.218;2023-04-03T06:46:58;8.85;;;8.25;;
18274;SDS011;19470;49.322;7.218;2023-04-03T06:49:25;6.57;;;6.03;;
18274;SDS011;19470;49.322;7.218;2023-04-03T06:51:52;22.63;;;21.13;;
18274;SDS011;19470;49.322;7.218;2023-04-03T06:54:19;12.55;;;11.60;;
18274;SDS011;19470;49.322;7.218;2023-04-03T06:56:50;21.70;;;20.33;;
18274;SDS011;19470;49.322;7.218;2023-04-03T06:59:16;11.10;;;10.07;;
18274;SDS011;19470;49.322;7.218;2023-04-03T07:01:43;19.85;;;18.45;;
18274;SDS011;19470;49.322;7.218;2023-04-03T07:04:09;18.38;;;17.27;;
18274;SDS011;19470;49.322;7.218;2023-04-03T07:06:36;15.40;;;14.27;;
18274;SDS011;19470;49.322;7.218;2023-04-03T07:09:02;188.38;;;178.23;;
18274;SDS011;19470;49.322;7.218;2023-04-03T07:11:29;244.07;;;228.77;;
18274;SDS011;19470;49.322;7.218;2023-04-03T07:13:57;58.97;;;55.50;;
18274;SDS011;19470;49.322;7.218;2023-04-03T07:16:24;33.50;;;31.58;;
18274;SDS011;19470;49.322;7.218;2023-04-03T07:18:50;47.90;;;45.25;;
18274;SDS011;19470;49.322;7.218;2023-04-03T07:21:17;74.47;;;70.38;;
18274;SDS011;19470;49.322;7.218;2023-04-03T07:23:43;39.33;;;37.08;;
18274;SDS011;19470;49.322;7.218;2023-04-03T07:26:10;39.60;;;37.20;;
18274;SDS011;19470;49.322;7.218;2023-04-03T07:28:36;46.22;;;43.65;;
18274;SDS011;19470;49.322;7.218;2023-04-03T07:31:07;41.35;;;38.85;;
18274;SDS011;19470;49.322;7.218;2023-04-03T07:33:37;116.13;;;109.55;;
18274;SDS011;19470;49.322;7.218;2023-04-03T07:36:04;50.67;;;47.65;;
18274;SDS011;19470;49.322;7.218;2023-04-03T07:38:31;66.47;;;62.38;;
18274;SDS011;19470;49.322;7.218;2023-04-03T07:40:58;61.00;;;57.90;;
18274;SDS011;19470;49.322;7.218;2023-04-03T07:43:25;68.78;;;65.10;;
18274;SDS011;19470;49.322;7.218;2023-04-03T07:45:52;80.68;;;76.47;;
18274;SDS011;19470;49.322;7.218;2023-04-03T07:48:20;66.57;;;62.95;;
18274;SDS011;19470;49.322;7.218;2023-04-03T07:50:49;32.85;;;30.88;;
18274;SDS011;19470;49.322;7.218;2023-04-03T07:53:16;48.92;;;46.33;;
18274;SDS011;19470;49.322;7.218;2023-04-03T07:55:45;64.05;;;60.67;;
18274;SDS011;19470;49.322;7.218;2023-04-03T07:58:12;57.35;;;54.30;;
18274;SDS011;19470;49.322;7.218;2023-04-03T08:00:41;66.47;;;62.15;;
18274;SDS011;19470;49.322;7.218;2023-04-03T08:03:09;117.03;;;110.80;;
18274;SDS011;19470;49.322;7.218;2023-04-03T08:05:38;89.07;;;83.88;;
18274;SDS011;19470;49.322;7.218;2023-04-03T08:08:06;101.70;;;96.13;;
18274;SDS011;19470;49.322;7.218;2023-04-03T08:10:33;91.85;;;87.28;;
18274;SDS011;19470;49.322;7.218;2023-04-03T08:13:00;137.82;;;130.95;;
18274;SDS011;19470;49.322;7.218;2023-04-03T08:15:28;207.75;;;196.32;;
18274;SDS011;19470;49.322;7.218;2023-04-03T08:17:56;154.40;;;146.68;;
18274;SDS011;19470;49.322;7.218;2023-04-03T08:20:22;172.25;;;163.63;;
18274;SDS011;19470;49.322;7.218;2023-04-03T08:22:50;188.65;;;179.10;;
18274;SDS011;19470;49.322;7.218;2023-04-03T08:25:16;153.05;;;144.90;;
18274;SDS011;19470;49.322;7.218;2023-04-03T08:27:43;113.55;;;107.45;;
18274;SDS011;19470;49.322;7.218;2023-04-03T08:30:10;139.40;;;131.95;;
18274;SDS011;19470;49.322;7.218;2023-04-03T08:32:37;133.02;;;126.32;;
18274;SDS011;19470;49.322;7.218;2023-04-03T08:35:05;139.23;;;131.80;;
18274;SDS011;19470;49.322;7.218;2023-04-03T08:37:34;123.68;;;117.10;;
18274;SDS011;19470;49.322;7.218;2023-04-03T08:40:02;131.20;;;124.65;;
18274;SDS011;19470;49.322;7.218;2023-04-03T08:42:35;133.48;;;126.72;;
18274;SDS011;19470;49.322;7.218;2023-04-03T08:45:08;147.98;;;140.65;;
18274;SDS011;19470;49.322;7.218;2023-04-03T08:47:38;141.55;;;134.25;;
18274;SDS011;19470;49.322;7.218;2023-04-03T08:50:11;152.60;;;145.02;;
18274;SDS011;19470;49.322;7.218;2023-04-03T08:52:42;150.73;;;142.85;;
18274;SDS011;19470;49.322;7.218;2023-04-03T08:55:16;137.77;;;130.70;;
18274;SDS011;19470;49.322;7.218;2023-04-03T08:57:48;131.60;;;124.47;;
18274;SDS011;19470;49.322;7.218;2023-04-03T09:00:21;139.10;;;131.70;;
18274;SDS011;19470;49.322;7.218;2023-04-03T09:02:52;133.40;;;126.53;;
18274;SDS011;19470;49.322;7.218;2023-04-03T09:05:33;139.45;;;132.48;;
18274;SDS011;19470;49.322;7.218;2023-04-03T09:08:23;147.43;;;140.05;;
18274;SDS011;19470;49.322;7.218;2023-04-03T09:11:09;123.75;;;117.35;;
18274;SDS011;19470;49.322;7.218;2023-04-03T09:13:43;148.52;;;141.07;;
18274;SDS011;19470;49.322;7.218;2023-04-03T09:16:20;240.10;;;228.10;;
18274;SDS011;19470;49.322;7.218;2023-04-03T09:18:54;219.10;;;207.80;;
18274;SDS011;19470;49.322;7.218;2023-04-03T09:21:30;293.33;;;276.45;;
18274;SDS011;19470;49.322;7.218;2023-04-03T09:24:01;138.40;;;131.65;;
18274;SDS011;19470;49.322;7.218;2023-04-03T09:26:33;136.90;;;130.15;;
18274;SDS011;19470;49.322;7.218;2023-04-03T09:29:05;115.60;;;109.13;;
18274;SDS011;19470;49.322;7.218;2023-04-03T09:31:36;111.88;;;104.68;;
18274;SDS011;19470;49.322;7.218;2023-04-03T09:34:06;115.85;;;110.13;;
18274;SDS011;19470;49.322;7.218;2023-04-03T09:36:40;190.93;;;181.23;;
18274;SDS011;19470;49.322;7.218;2023-04-03T09:39:11;140.25;;;133.20;;
18274;SDS011;19470;49.322;7.218;2023-04-03T09:41:42;127.32;;;120.80;;
18274;SDS011;19470;49.322;7.218;2023-04-03T09:44:22;124.93;;;118.50;;
18274;SDS011;19470;49.322;7.218;2023-04-03T09:46:50;288.42;;;273.08;;
18274;SDS011;19470;49.322;7.218;2023-04-03T09:49:17;126.70;;;120.28;;
18274;SDS011;19470;49.322;7.218;2023-04-03T09:51:44;130.20;;;123.45;;
18274;SDS011;19470;49.322;7.218;2023-04-03T09:54:25;126.72;;;120.18;;
18274;SDS011;19470;49.322;7.218;2023-04-03T09:57:04;118.63;;;112.80;;
18274;SDS011;19470;49.322;7.218;2023-04-03T09:59:33;109.15;;;103.45;;
18274;SDS011;19470;49.322;7.218;2023-04-03T10:02:03;180.15;;;171.07;;
18274;SDS011;19470;49.322;7.218;2023-04-03T10:04:47;146.98;;;139.48;;
18274;SDS011;19470;49.322;7.218;2023-04-03T10:07:26;141.95;;;134.90;;
18274;SDS011;19470;49.322;7.218;2023-04-03T10:09:55;143.25;;;135.77;;
18274;SDS011;19470;49.322;7.218;2023-04-03T10:12:23;169.55;;;161.05;;
18274;SDS011;19470;49.322;7.218;2023-04-03T10:14:54;294.13;;;278.95;;
18274;SDS011;19470;49.322;7.218;2023-04-03T10:17:22;292.98;;;277.63;;
18274;SDS011;19470;49.322;7.218;2023-04-03T10:20:03;324.67;;;308.40;;
18274;SDS011;19470;49.322;7.218;2023-04-03T10:22:41;454.83;;;430.25;;
18274;SDS011;19470;49.322;7.218;2023-04-03T10:25:17;372.88;;;353.80;;
18274;SDS011;19470;49.322;7.218;2023-04-03T10:27:58;410.02;;;388.67;;
18274;SDS011;19470;49.322;7.218;2023-04-03T10:30:32;449.17;;;424.80;;
18274;SDS011;19470;49.322;7.218;2023-04-03T10:33:11;480.55;;;454.52;;
18274;SDS011;19470;49.322;7.218;2023-04-03T10:35:49;541.30;;;510.90;;
18274;SDS011;19470;49.322;7.218;2023-04-03T10:38:30;513.83;;;485.02;;
18274;SDS011;19470;49.322;7.218;2023-04-03T10:41:07;559.95;;;527.83;;
18274;SDS011;19470;49.322;7.218;2023-04-03T10:43:44;538.10;;;507.48;;
18274;SDS011;19470;49.322;7.218;2023-04-03T10:46:20;508.40;;;480.25;;
18274;SDS011;19470;49.322;7.218;2023-04-03T10:48:56;518.42;;;488.70;;
18274;SDS011;19470;49.322;7.218;2023-04-03T10:51:33;466.15;;;440.67;;
18274;SDS011;19470;49.322;7.218;2023-04-03T10:54:08;391.00;;;370.67;;
18274;SDS011;19470;49.322;7.218;2023-04-03T10:56:39;534.33;;;503.27;;
18274;SDS011;19470;49.322;7.218;2023-04-03T10:59:12;438.02;;;414.40;;
18274;SDS011;19470;49.322;7.218;2023-04-03T11:01:45;445.30;;;421.02;;
18274;SDS011;19470;49.322;7.218;2023-04-03T11:04:20;578.03;;;543.75;;
18274;SDS011;19470;49.322;7.218;2023-04-03T11:06:51;578.17;;;544.80;;
18274;SDS011;19470;49.322;7.218;2023-04-03T11:09:23;560.50;;;528.28;;
18274;SDS011;19470;49.322;7.218;2023-04-03T11:11:55;593.40;;;557.85;;
18274;SDS011;19470;49.322;7.218;2023-04-03T11:14:28;514.38;;;484.95;;
18274;SDS011;19470;49.322;7.218;2023-04-03T11:17:01;403.10;;;381.67;;
18274;SDS011;19470;49.322;7.218;2023-04-03T11:19:38;438.58;;;415.42;;
18274;SDS011;19470;49.322;7.218;2023-04-03T11:22:10;380.05;;;360.30;;
18274;SDS011;19470;49.322;7.218;2023-04-03T11:24:46;380.90;;;361.17;;
18274;SDS011;19470;49.322;7.218;2023-04-03T11:27:22;422.17;;;399.73;;
18274;SDS011;19470;49.322;7.218;2023-04-03T11:29:52;422.38;;;399.95;;
18274;SDS011;19470;49.322;7.218;2023-04-03T11:32:27;419.20;;;396.95;;
18274;SDS011;19470;49.322;7.218;2023-04-03T11:35:03;435.85;;;412.40;;
18274;SDS011;19470;49.322;7.218;2023-04-03T11:37:33;458.55;;;433.23;;
18274;SDS011;19470;49.322;7.218;2023-04-03T11:40:02;423.15;;;400.58;;
18274;SDS011;19470;49.322;7.218;2023-04-03T11:42:33;438.65;;;415.33;;
18274;SDS011;19470;49.322;7.218;2023-04-03T11:45:17;434.83;;;411.45;;
18274;SDS011;19470;49.322;7.218;2023-04-03T11:47:53;408.98;;;387.30;;
18274;SDS011;19470;49.322;7.218;2023-04-03T11:50:31;397.92;;;377.33;;
18274;SDS011;19470;49.322;7.218;2023-04-03T11:55:55;466.63;;;439.70;;
18274;SDS011;19470;49.322;7.218;2023-04-03T11:58:24;322.20;;;305.17;;
18274;SDS011;19470;49.322;7.218;2023-04-03T12:04:07;261.83;;;248.48;;
18274;SDS011;19470;49.322;7.218;2023-04-03T12:09:27;299.05;;;284.30;;
18274;SDS011;19470;49.322;7.218;2023-04-03T12:12:21;328.98;;;312.48;;
18274;SDS011;19470;49.322;7.218;2023-04-03T12:14:53;375.40;;;355.92;;
18274;SDS011;19470;49.322;7.218;2023-04-03T12:17:22;436.77;;;413.60;;
18274;SDS011;19470;49.322;7.218;2023-04-03T12:19:52;455.55;;;430.83;;
18274;SDS011;19470;49.322;7.218;2023-04-03T12:22:19;515.58;;;487.15;;
18274;SDS011;19470;49.322;7.218;2023-04-03T12:24:47;583.22;;;549.15;;
18274;SDS011;19470;49.322;7.218;2023-04-03T12:27:26;481.42;;;455.20;;
18274;SDS011;19470;49.322;7.218;2023-04-03T12:29:56;479.08;;;453.25;;
18274;SDS011;19470;49.322;7.218;2023-04-03T12:35:29;500.95;;;472.95;;
18274;SDS011;19470;49.322;7.218;2023-04-03T12:38:16;407.73;;;386.33;;
18274;SDS011;19470;49.322;7.218;2023-04-03T12:41:19;400.33;;;379.15;;
18274;SDS011;19470;49.322;7.218;2023-04-03T12:43:59;479.25;;;452.85;;
18274;SDS011;19470;49.322;7.218;2023-04-03T12:46:35;391.50;;;370.98;;
18274;SDS011;19470;49.322;7.218;2023-04-03T12:49:14;343.88;;;326.45;;
18274;SDS011;19470;49.322;7.218;2023-04-03T12:51:52;322.38;;;305.90;;
18274;SDS011;19470;49.322;7.218;2023-04-03T12:54:19;278.27;;;264.48;;
18274;SDS011;19470;49.322;7.218;2023-04-03T12:56:49;163.73;;;155.27;;
18274;SDS011;19470;49.322;7.218;2023-04-03T12:59:18;108.07;;;102.60;;
18274;SDS011;19470;49.322;7.218;2023-04-03T13:01:52;214.85;;;204.05;;
18274;SDS011;19470;49.322;7.218;2023-04-03T13:04:22;387.58;;;365.70;;
18274;SDS011;19470;49.322;7.218;2023-04-03T13:06:49;306.90;;;291.55;;
18274;SDS011;19470;49.322;7.218;2023-04-03T13:09:20;268.85;;;255.65;;
18274;SDS011;19470;49.322;7.218;2023-04-03T13:11:49;347.02;;;329.42;;
18274;SDS011;19470;49.322;7.218;2023-04-03T13:14:17;383.48;;;363.45;;
18274;SDS011;19470;49.322;7.218;2023-04-03T13:16:52;409.52;;;387.90;;
18274;SDS011;19470;49.322;7.218;2023-04-03T13:19:21;410.95;;;389.20;;
18274;SDS011;19470;49.322;7.218;2023-04-03T13:21:49;413.65;;;391.67;;
18274;SDS011;19470;49.322;7.218;2023-04-03T13:24:20;437.20;;;413.20;;
18274;SDS011;19470;49.322;7.218;2023-04-03T13:26:46;335.08;;;318.05;;
18274;SDS011;19470;49.322;7.218;2023-04-03T13:29:18;290.27;;;275.67;;
18274;SDS011;19470;49.322;7.218;2023-04-03T13:31:52;260.98;;;247.85;;
18274;SDS011;19470;49.322;7.218;2023-04-03T13:34:23;445.95;;;420.02;;
18274;SDS011;19470;49.322;7.218;2023-04-03T13:36:56;288.10;;;273.83;;
18274;SDS011;19470;49.322;7.218;2023-04-03T13:39:25;391.63;;;370.83;;
18274;SDS011;19470;49.322;7.218;2023-04-03T13:41:54;289.48;;;275.17;;
18274;SDS011;19470;49.322;7.218;2023-04-03T13:44:26;338.35;;;321.45;;
18274;SDS011;19470;49.322;7.218;2023-04-03T13:46:56;326.63;;;310.08;;
18274;SDS011;19470;49.322;7.218;2023-04-03T13:49:30;326.58;;;310.40;;
18274;SDS011;19470;49.322;7.218;2023-04-03T13:51:59;295.55;;;280.95;;
18274;SDS011;19470;49.322;7.218;2023-04-03T13:54:29;265.98;;;252.77;;
18274;SDS011;19470;49.322;7.218;2023-04-03T13:56:58;253.00;;;240.40;;
18274;SDS011;19470;49.322;7.218;2023-04-03T13:59:27;242.65;;;230.63;;
18274;SDS011;19470;49.322;7.218;2023-04-03T14:02:09;290.33;;;275.75;;
18274;SDS011;19470;49.322;7.218;2023-04-03T14:04:48;237.55;;;225.38;;
18274;SDS011;19470;49.322;7.218;2023-04-03T14:07:21;201.63;;;191.43;;
18274;SDS011;19470;49.322;7.218;2023-04-03T14:09:48;202.48;;;192.48;;
18274;SDS011;19470;49.322;7.218;2023-04-03T14:12:17;190.18;;;180.57;;
18274;SDS011;19470;49.322;7.218;2023-04-03T14:14:47;178.77;;;169.88;;
18274;SDS011;19470;49.322;7.218;2023-04-03T14:17:15;123.00;;;116.85;;
18274;SDS011;19470;49.322;7.218;2023-04-03T14:19:44;227.57;;;216.38;;
18274;SDS011;19470;49.322;7.218;2023-04-03T14:22:14;240.20;;;228.48;;
18274;SDS011;19470;49.322;7.218;2023-04-03T14:24:42;234.60;;;222.88;;
18274;SDS011;19470;49.322;7.218;2023-04-03T14:27:11;196.98;;;187.07;;
18274;SDS011;19470;49.322;7.218;2023-04-03T14:29:42;162.90;;;154.65;;
18274;SDS011;19470;49.322;7.218;2023-04-03T14:32:09;220.25;;;209.25;;
18274;SDS011;19470;49.322;7.218;2023-04-03T14:34:37;163.80;;;155.63;;
18274;SDS011;19470;49.322;7.218;2023-04-03T14:37:04;127.05;;;120.60;;
18274;SDS011;19470;49.322;7.218;2023-04-03T14:39:32;133.63;;;126.95;;
18274;SDS011;19470;49.322;7.218;2023-04-03T14:41:58;177.48;;;168.70;;
18274;SDS011;19470;49.322;7.218;2023-04-03T14:44:25;175.10;;;166.27;;
18274;SDS011;19470;49.322;7.218;2023-04-03T14:46:52;127.53;;;121.18;;
18274;SDS011;19470;49.322;7.218;2023-04-03T14:49:19;111.38;;;105.82;;